Time;durP1;ratioP1;P1;durP2;ratioP2;P2;SDS_P1;SDS_P2;PMS_P1;PMS_P2;Temp;Humidity;BMP_temperature;BMP_pressure;BME280_temperature;BME280_humidity;BME280_pressure;Samples;Min_cycle;Max_cycle;Signal;HPM_P1;HPM_P2
2021/12/29 00:01:46;;;;;;;7.18;2.00;;;;;;;;;;5059229;28;20044;-75
2021/12/29 00:04:12;;;;;;;10.15;2.10;;;;;;;;;;5051392;28;20045;-75
2021/12/29 00:06:37;;;;;;;11.93;2.53;;;;;;;;;;5045725;28;20018;-75
2021/12/29 00:09:02;;;;;;;6.53;2.10;;;;;;;;;;5038072;28;20025;-75
2021/12/29 00:11:28;;;;;;;9.18;2.28;;;;;;;;;;5045874;28;20060;-75
2021/12/29 00:13:53;;;;;;;9.25;2.83;;;;;;;;;;5043407;28;20687;-75
2021/12/29 00:16:19;;;;;;;9.18;3.28;;;;;;;;;;5043536;28;20515;-75
2021/12/29 00:18:44;;;;;;;7.22;2.30;;;;;;;;;;5044371;28;20025;-75
2021/12/29 00:21:10;;;;;;;10.00;2.35;;;;;;;;;;5043052;28;20482;-75
2021/12/29 00:23:37;;;;;;;8.35;2.20;;;;;;;;;;5044210;28;20037;-75
2021/12/29 00:26:03;;;;;;;7.05;2.38;;;;;;;;;;5044892;28;20124;-75
2021/12/29 00:28:28;;;;;;;8.07;1.95;;;;;;;;;;5042948;28;20773;-75
2021/12/29 00:30:54;;;;;;;5.32;2.47;;;;;;;;;;5043082;28;20032;-75
2021/12/29 00:33:19;;;;;;;6.75;2.28;;;;;;;;;;5033632;28;20108;-75
2021/12/29 00:35:46;;;;;;;8.00;2.17;;;;;;;;;;5035227;28;20040;-75
2021/12/29 00:38:12;;;;;;;8.63;2.40;;;;;;;;;;5051841;28;20041;-75
2021/12/29 00:40:38;;;;;;;5.22;1.70;;;;;;;;;;5060109;28;20028;-75
2021/12/29 00:43:05;;;;;;;7.05;2.30;;;;;;;;;;5057039;28;20128;-75
2021/12/29 00:45:36;;;;;;;8.10;2.40;;;;;;;;;;5060915;28;20040;-75
2021/12/29 00:48:10;;;;;;;9.10;2.22;;;;;;;;;;5053932;28;20041;-75
2021/12/29 00:50:36;;;;;;;8.05;2.70;;;;;;;;;;5055031;28;20127;-75
2021/12/29 00:53:01;;;;;;;14.15;2.53;;;;;;;;;;5061714;28;20062;-75
2021/12/29 00:55:27;;;;;;;5.88;2.30;;;;;;;;;;5057264;28;20083;-75
2021/12/29 00:57:52;;;;;;;8.02;2.40;;;;;;;;;;5054564;28;20032;-75
2021/12/29 01:00:20;;;;;;;11.93;2.38;;;;;;;;;;5064772;28;20506;-75
2021/12/29 01:02:46;;;;;;;5.97;2.00;;;;;;;;;;5078181;28;20449;-75
2021/12/29 01:05:13;;;;;;;8.35;2.33;;;;;;;;;;5051097;28;20075;-75
2021/12/29 01:07:38;;;;;;;8.27;2.47;;;;;;;;;;5059071;28;20090;-75
2021/12/29 01:10:05;;;;;;;4.88;2.22;;;;;;;;;;5059204;28;20032;-75
2021/12/29 01:12:30;;;;;;;10.07;2.45;;;;;;;;;;5060811;28;20028;-75
2021/12/29 01:14:57;;;;;;;8.30;2.50;;;;;;;;;;5058140;28;20028;-75
2021/12/29 01:17:24;;;;;;;9.73;2.78;;;;;;;;;;5057017;28;20025;-75
2021/12/29 01:19:53;;;;;;;7.80;2.03;;;;;;;;;;5055686;28;20547;-75
2021/12/29 01:22:20;;;;;;;7.07;2.20;;;;;;;;;;5056748;28;20048;-75
2021/12/29 01:24:46;;;;;;;6.68;2.17;;;;;;;;;;5056744;28;20043;-75
2021/12/29 01:27:12;;;;;;;5.65;1.88;;;;;;;;;;5058552;28;20029;-75
2021/12/29 01:29:37;;;;;;;5.10;2.10;;;;;;;;;;5055535;28;20029;-75
2021/12/29 01:32:03;;;;;;;10.23;2.53;;;;;;;;;;5054354;28;20029;-75
2021/12/29 01:34:29;;;;;;;10.90;2.38;;;;;;;;;;5059586;28;20040;-75
2021/12/29 01:36:54;;;;;;;9.00;2.45;;;;;;;;;;5060007;28;20028;-75
2021/12/29 01:39:21;;;;;;;6.85;1.92;;;;;;;;;;5062587;28;20405;-75
2021/12/29 01:41:49;;;;;;;11.20;2.40;;;;;;;;;;5077124;28;20405;-75
2021/12/29 01:44:16;;;;;;;7.10;2.28;;;;;;;;;;5053376;28;20037;-75
2021/12/29 01:46:45;;;;;;;9.48;2.30;;;;;;;;;;5054419;28;20516;-75
2021/12/29 01:49:10;;;;;;;7.43;2.40;;;;;;;;;;5034398;28;20057;-75
2021/12/29 01:51:38;;;;;;;7.40;2.63;;;;;;;;;;5020690;28;20029;-75
2021/12/29 01:54:23;;;;;;;8.05;2.05;;;;;;;;;;5042054;28;20041;-75
2021/12/29 01:56:50;;;;;;;9.18;2.83;;;;;;;;;;5013485;28;20533;-75
2021/12/29 01:59:16;;;;;;;6.13;2.28;;;;;;;;;;5035781;28;20530;-75
2021/12/29 02:01:42;;;;;;;5.40;2.25;;;;;;;;;;5038765;28;20122;-75
2021/12/29 02:04:07;;;;;;;8.20;2.15;;;;;;;;;;5037770;28;20040;-75
2021/12/29 02:06:33;;;;;;;6.65;2.20;;;;;;;;;;5036768;28;20021;-75
2021/12/29 02:08:58;;;;;;;8.80;2.50;;;;;;;;;;5018745;28;20045;-75
2021/12/29 02:11:29;;;;;;;10.18;2.47;;;;;;;;;;5038011;28;20037;-75
2021/12/29 02:13:59;;;;;;;11.05;2.90;;;;;;;;;;5036225;28;20046;-75
2021/12/29 02:16:26;;;;;;;8.07;2.33;;;;;;;;;;5038698;28;20037;-75
2021/12/29 02:18:58;;;;;;;7.90;2.45;;;;;;;;;;5019198;28;20439;-75
2021/12/29 02:21:25;;;;;;;8.82;2.45;;;;;;;;;;5022975;28;20029;-75
2021/12/29 02:24:36;;;;;;;7.68;2.60;;;;;;;;;;5026853;28;20128;-74
2021/12/29 02:26:41;;;;;;;6.68;2.60;;;;;;;;;;5009480;28;20042;-75
2021/12/29 02:29:11;;;;;;;13.23;3.13;;;;;;;;;;5020826;28;20042;-75
2021/12/29 02:31:38;;;;;;;7.07;2.80;;;;;;;;;;5008068;28;20057;-75
2021/12/29 02:34:05;;;;;;;8.57;2.67;;;;;;;;;;5020008;28;20053;-75
2021/12/29 02:36:31;;;;;;;9.00;2.47;;;;;;;;;;5020611;28;20029;-75
2021/12/29 02:38:57;;;;;;;8.68;3.22;;;;;;;;;;5023342;28;20514;-75
2021/12/29 02:41:25;;;;;;;7.55;2.65;;;;;;;;;;5025766;28;20037;-75
2021/12/29 02:43:58;;;;;;;11.73;2.83;;;;;;;;;;5032322;28;20037;-75
2021/12/29 02:46:24;;;;;;;10.00;2.42;;;;;;;;;;5018637;28;20519;-75
2021/12/29 02:49:02;;;;;;;8.27;2.20;;;;;;;;;;5041148;28;20068;-74
2021/12/29 02:51:28;;;;;;;12.23;2.67;;;;;;;;;;5069123;28;20111;-75
2021/12/29 02:53:54;;;;;;;9.15;2.40;;;;;;;;;;5064738;28;20052;-75
2021/12/29 02:56:19;;;;;;;14.32;3.58;;;;;;;;;;5047904;28;20137;-75
2021/12/29 02:58:44;;;;;;;8.00;2.42;;;;;;;;;;5039071;28;20111;-75
2021/12/29 03:01:13;;;;;;;6.47;2.03;;;;;;;;;;5039525;28;20116;-75
2021/12/29 03:03:39;;;;;;;6.63;2.55;;;;;;;;;;5038763;28;20028;-74
2021/12/29 03:06:09;;;;;;;5.53;2.25;;;;;;;;;;5060391;28;20041;-75
2021/12/29 03:08:35;;;;;;;7.85;2.60;;;;;;;;;;5059468;28;20044;-75
2021/12/29 03:11:02;;;;;;;8.20;2.30;;;;;;;;;;5058658;28;20041;-75
2021/12/29 03:13:29;;;;;;;7.75;2.13;;;;;;;;;;5062601;28;20048;-75
2021/12/29 03:15:56;;;;;;;8.65;2.47;;;;;;;;;;5055401;28;20032;-75
2021/12/29 03:18:21;;;;;;;5.65;2.03;;;;;;;;;;5065536;28;20117;-75
2021/12/29 03:20:48;;;;;;;12.82;3.13;;;;;;;;;;5064807;28;20032;-75
2021/12/29 03:23:14;;;;;;;8.88;2.22;;;;;;;;;;5062397;28;20501;-75
2021/12/29 03:25:39;;;;;;;6.70;2.42;;;;;;;;;;5056574;28;20040;-75
2021/12/29 03:28:05;;;;;;;6.18;2.30;;;;;;;;;;5053597;28;20033;-75
2021/12/29 03:30:35;;;;;;;6.53;2.42;;;;;;;;;;5057074;28;20063;-76
2021/12/29 03:33:03;;;;;;;5.78;2.30;;;;;;;;;;5056372;28;20035;-75
2021/12/29 03:35:33;;;;;;;10.32;2.50;;;;;;;;;;5061164;28;20037;-75
2021/12/29 03:38:03;;;;;;;5.70;2.97;;;;;;;;;;5059524;28;20530;-75
2021/12/29 03:40:29;;;;;;;9.18;2.17;;;;;;;;;;5058824;28;20466;-75
2021/12/29 03:42:55;;;;;;;6.57;2.40;;;;;;;;;;5060342;28;20555;-75
2021/12/29 03:45:21;;;;;;;4.90;2.10;;;;;;;;;;5058472;28;20028;-75
2021/12/29 03:47:47;;;;;;;7.53;2.10;;;;;;;;;;5061753;28;20102;-75
2021/12/29 03:50:12;;;;;;;8.68;2.15;;;;;;;;;;5061773;28;20029;-75
2021/12/29 03:52:38;;;;;;;13.65;2.55;;;;;;;;;;5045066;28;20098;-75
2021/12/29 03:55:03;;;;;;;11.35;3.15;;;;;;;;;;5057204;28;20469;-75
2021/12/29 03:57:29;;;;;;;6.45;2.20;;;;;;;;;;5065637;28;20028;-75
2021/12/29 03:59:54;;;;;;;10.40;2.38;;;;;;;;;;5062538;28;20041;-75
2021/12/29 04:02:19;;;;;;;9.38;2.28;;;;;;;;;;5060281;28;20040;-75
2021/12/29 04:04:45;;;;;;;8.30;2.30;;;;;;;;;;5042873;28;20035;-75
2021/12/29 04:07:10;;;;;;;9.32;2.50;;;;;;;;;;5063319;28;20051;-75
2021/12/29 04:09:36;;;;;;;6.50;2.40;;;;;;;;;;5061753;28;20032;-75
2021/12/29 04:12:02;;;;;;;3.45;2.00;;;;;;;;;;5038015;28;20041;-75
2021/12/29 04:14:27;;;;;;;7.38;2.20;;;;;;;;;;5065346;28;20044;-75
2021/12/29 04:16:55;;;;;;;8.65;2.05;;;;;;;;;;5060340;28;20148;-75
2021/12/29 04:19:40;;;;;;;7.05;2.10;;;;;;;;;;5062728;28;20043;-75
2021/12/29 04:22:07;;;;;;;5.85;1.98;;;;;;;;;;5062179;28;20056;-75
2021/12/29 04:24:33;;;;;;;8.50;2.00;;;;;;;;;;5063015;28;20028;-76
2021/12/29 04:26:59;;;;;;;5.28;1.77;;;;;;;;;;5037011;28;20457;-75
2021/12/29 04:29:25;;;;;;;5.72;2.63;;;;;;;;;;5058922;28;20755;-75
2021/12/29 04:31:50;;;;;;;8.68;1.80;;;;;;;;;;5057104;28;20037;-75
2021/12/29 04:34:15;;;;;;;4.85;1.80;;;;;;;;;;5041580;28;20593;-75
2021/12/29 04:36:41;;;;;;;5.60;1.80;;;;;;;;;;5045572;28;20059;-75
2021/12/29 04:39:06;;;;;;;4.18;2.17;;;;;;;;;;5049576;28;20512;-75
2021/12/29 04:41:32;;;;;;;9.13;2.13;;;;;;;;;;5037066;28;20040;-75
2021/12/29 04:43:58;;;;;;;10.15;2.38;;;;;;;;;;5053709;28;20033;-75
2021/12/29 04:46:35;;;;;;;4.72;1.92;;;;;;;;;;5046498;28;20402;-75
2021/12/29 04:49:02;;;;;;;6.10;2.17;;;;;;;;;;5047004;28;20120;-75
2021/12/29 04:51:34;;;;;;;5.40;2.08;;;;;;;;;;5061057;28;20417;-75
2021/12/29 04:54:01;;;;;;;7.80;2.05;;;;;;;;;;5057448;28;20032;-75
2021/12/29 04:56:27;;;;;;;9.75;2.33;;;;;;;;;;5050280;28;20033;-75
2021/12/29 04:58:52;;;;;;;8.50;2.20;;;;;;;;;;5038558;28;20090;-75
2021/12/29 05:01:17;;;;;;;6.45;1.98;;;;;;;;;;5041836;28;20036;-75
2021/12/29 05:03:44;;;;;;;4.53;2.10;;;;;;;;;;5038791;28;20035;-75
2021/12/29 05:08:35;;;;;;;6.03;2.13;;;;;;;;;;5046594;28;20025;-75
2021/12/29 05:11:04;;;;;;;6.05;1.85;;;;;;;;;;5055431;28;20040;-75
2021/12/29 05:13:34;;;;;;;8.40;2.10;;;;;;;;;;5057334;28;20037;-75
2021/12/29 05:16:00;;;;;;;10.05;2.33;;;;;;;;;;5045887;28;20033;-75
2021/12/29 05:18:28;;;;;;;9.23;2.08;;;;;;;;;;5043781;28;20029;-75
2021/12/29 05:20:54;;;;;;;6.15;2.00;;;;;;;;;;5045358;28;20098;-75
2021/12/29 05:23:20;;;;;;;7.32;2.50;;;;;;;;;;5054780;28;20072;-75
2021/12/29 05:25:47;;;;;;;5.85;1.90;;;;;;;;;;5052159;28;20055;-75
2021/12/29 05:28:13;;;;;;;7.68;2.25;;;;;;;;;;5043266;28;20431;-75
2021/12/29 05:30:38;;;;;;;11.50;2.50;;;;;;;;;;5042138;28;20061;-76
2021/12/29 05:33:04;;;;;;;7.95;2.25;;;;;;;;;;5042285;28;20065;-75
2021/12/29 05:35:30;;;;;;;6.57;2.40;;;;;;;;;;5045841;28;20035;-75
2021/12/29 05:37:56;;;;;;;10.68;2.20;;;;;;;;;;5054570;28;20036;-75
2021/12/29 05:40:23;;;;;;;6.75;2.10;;;;;;;;;;5037686;28;20454;-75
2021/12/29 05:42:48;;;;;;;8.18;2.63;;;;;;;;;;5047132;28;20044;-75
2021/12/29 05:45:14;;;;;;;9.00;2.80;;;;;;;;;;5049319;28;20521;-76
2021/12/29 05:47:40;;;;;;;7.57;2.60;;;;;;;;;;5054142;28;20049;-75
2021/12/29 05:50:09;;;;;;;9.25;2.47;;;;;;;;;;5022685;28;20041;-75
2021/12/29 05:52:35;;;;;;;12.70;2.95;;;;;;;;;;5005276;28;20045;-76
2021/12/29 05:55:00;;;;;;;9.13;2.00;;;;;;;;;;5039955;28;20123;-69
2021/12/29 05:57:26;;;;;;;5.70;2.10;;;;;;;;;;5026757;28;20035;-71
2021/12/29 05:59:51;;;;;;;8.95;2.70;;;;;;;;;;5035232;28;20041;-71
2021/12/29 06:02:18;;;;;;;7.88;2.42;;;;;;;;;;5028729;28;20131;-71
2021/12/29 06:04:43;;;;;;;12.52;2.90;;;;;;;;;;5011761;28;20058;-71
2021/12/29 06:07:09;;;;;;;8.05;2.30;;;;;;;;;;5018927;28;20040;-71
2021/12/29 06:09:34;;;;;;;9.18;2.30;;;;;;;;;;5020838;28;20163;-70
2021/12/29 06:12:00;;;;;;;11.32;2.72;;;;;;;;;;5019947;28;20124;-71
2021/12/29 06:14:25;;;;;;;8.38;3.03;;;;;;;;;;5018857;28;20037;-71
2021/12/29 06:16:50;;;;;;;8.77;2.42;;;;;;;;;;5020102;28;20050;-71
2021/12/29 06:19:16;;;;;;;9.85;3.30;;;;;;;;;;5007794;28;20049;-70
2021/12/29 06:21:41;;;;;;;7.97;2.63;;;;;;;;;;5021080;28;20043;-70
2021/12/29 06:24:07;;;;;;;6.90;2.25;;;;;;;;;;5038797;28;20261;-70
2021/12/29 06:26:34;;;;;;;7.82;2.47;;;;;;;;;;5031191;28;20062;-84
2021/12/29 06:29:00;;;;;;;9.93;2.20;;;;;;;;;;5036395;28;20037;-76
2021/12/29 06:31:25;;;;;;;7.70;2.58;;;;;;;;;;5038464;28;20387;-76
2021/12/29 06:33:51;;;;;;;6.30;2.70;;;;;;;;;;5040642;28;20036;-77
2021/12/29 06:36:17;;;;;;;12.15;3.53;;;;;;;;;;5038802;28;20037;-77
2021/12/29 06:38:42;;;;;;;8.77;3.90;;;;;;;;;;5034041;28;20041;-75
2021/12/29 06:41:08;;;;;;;13.85;5.25;;;;;;;;;;5035972;28;20037;-76
2021/12/29 06:43:33;;;;;;;13.43;7.10;;;;;;;;;;5037831;28;20113;-76
2021/12/29 06:45:58;;;;;;;8.27;2.95;;;;;;;;;;5039172;28;20399;-76
2021/12/29 06:48:24;;;;;;;10.18;3.78;;;;;;;;;;5048660;28;20099;-76
2021/12/29 06:50:49;;;;;;;14.90;3.58;;;;;;;;;;5055903;28;20048;-81
2021/12/29 06:53:15;;;;;;;14.10;3.38;;;;;;;;;;5051423;28;20044;-77
2021/12/29 06:55:42;;;;;;;12.00;4.45;;;;;;;;;;5047520;28;20112;-76
2021/12/29 06:58:08;;;;;;;11.13;3.75;;;;;;;;;;5051992;28;20045;-82
2021/12/29 07:00:33;;;;;;;14.18;3.40;;;;;;;;;;5055756;28;20036;-76
2021/12/29 07:02:59;;;;;;;9.38;3.97;;;;;;;;;;5055293;28;20055;-77
2021/12/29 07:05:24;;;;;;;15.25;3.50;;;;;;;;;;5036825;28;20041;-76
2021/12/29 07:07:52;;;;;;;18.52;8.80;;;;;;;;;;5033235;28;20069;-77
2021/12/29 07:10:17;;;;;;;8.50;3.03;;;;;;;;;;5040072;28;20044;-76
2021/12/29 07:12:43;;;;;;;11.10;5.05;;;;;;;;;;5055060;28;20025;-76
2021/12/29 07:15:08;;;;;;;10.45;4.35;;;;;;;;;;5031811;28;20033;-77
2021/12/29 07:17:34;;;;;;;11.73;3.85;;;;;;;;;;5032865;28;20412;-79
2021/12/29 07:19:59;;;;;;;11.40;3.00;;;;;;;;;;5015637;28;20068;-78
2021/12/29 07:22:24;;;;;;;12.07;2.50;;;;;;;;;;5043026;28;20040;-80
2021/12/29 07:24:50;;;;;;;9.80;2.30;;;;;;;;;;5049308;28;20573;-78
2021/12/29 07:27:15;;;;;;;7.55;1.98;;;;;;;;;;5035214;28;20757;-76
2021/12/29 07:29:42;;;;;;;8.57;2.13;;;;;;;;;;5056192;28;20043;-75
2021/12/29 07:32:07;;;;;;;7.97;2.70;;;;;;;;;;5051720;28;20041;-76
2021/12/29 07:34:33;;;;;;;7.85;2.38;;;;;;;;;;5052057;28;20041;-75
2021/12/29 07:36:58;;;;;;;7.60;2.30;;;;;;;;;;5051055;28;20434;-76
2021/12/29 07:39:24;;;;;;;6.03;1.98;;;;;;;;;;5053956;28;20443;-79
2021/12/29 07:41:49;;;;;;;15.50;2.72;;;;;;;;;;5055267;28;20028;-76
2021/12/29 07:44:17;;;;;;;10.95;2.50;;;;;;;;;;5051003;28;20068;-78
2021/12/29 07:46:44;;;;;;;10.73;2.35;;;;;;;;;;5052409;28;20059;-79
2021/12/29 07:49:09;;;;;;;9.05;2.15;;;;;;;;;;5032503;28;20045;-78
2021/12/29 07:51:35;;;;;;;5.65;2.00;;;;;;;;;;5034535;28;20060;-84
2021/12/29 07:54:00;;;;;;;10.50;2.25;;;;;;;;;;5016309;28;20040;-83
2021/12/29 07:56:27;;;;;;;11.07;2.70;;;;;;;;;;5029197;28;20107;-83
2021/12/29 07:58:52;;;;;;;9.27;2.80;;;;;;;;;;5034086;28;20045;-79
2021/12/29 08:01:18;;;;;;;12.48;2.80;;;;;;;;;;5034074;28;20053;-75
2021/12/29 08:03:44;;;;;;;10.38;2.50;;;;;;;;;;5040127;28;20107;-81
2021/12/29 08:06:09;;;;;;;10.43;1.90;;;;;;;;;;5014068;28;20040;-74
2021/12/29 08:08:34;;;;;;;10.30;2.20;;;;;;;;;;5034748;28;20096;-80
2021/12/29 08:11:00;;;;;;;11.20;2.42;;;;;;;;;;5025857;28;20964;-81
2021/12/29 08:13:25;;;;;;;7.82;2.20;;;;;;;;;;5016718;28;20529;-81
2021/12/29 08:15:51;;;;;;;5.82;2.00;;;;;;;;;;5041007;28;20060;-78
2021/12/29 08:18:16;;;;;;;6.88;2.20;;;;;;;;;;5024971;28;20525;-77
2021/12/29 08:20:42;;;;;;;7.43;1.88;;;;;;;;;;5047200;28;20429;-89
2021/12/29 08:23:09;;;;;;;9.27;2.88;;;;;;;;;;5041590;28;20045;-74
2021/12/29 08:25:35;;;;;;;7.90;2.40;;;;;;;;;;5040192;28;20029;-74
2021/12/29 08:28:00;;;;;;;6.15;2.22;;;;;;;;;;5036610;28;20067;-75
2021/12/29 08:30:27;;;;;;;10.80;2.58;;;;;;;;;;5015141;28;20551;-75
2021/12/29 08:32:53;;;;;;;8.23;2.55;;;;;;;;;;5019221;28;20033;-75
2021/12/29 08:35:19;;;;;;;8.18;2.42;;;;;;;;;;5036686;28;20131;-75
2021/12/29 08:37:45;;;;;;;6.03;2.40;;;;;;;;;;5035297;28;20044;-75
2021/12/29 08:40:12;;;;;;;8.55;2.53;;;;;;;;;;5034718;28;20041;-78
2021/12/29 08:42:39;;;;;;;5.20;2.10;;;;;;;;;;5031982;28;20049;-74
2021/12/29 08:45:07;;;;;;;8.15;2.63;;;;;;;;;;5016915;28;20044;-74
2021/12/29 08:47:33;;;;;;;7.28;2.90;;;;;;;;;;5030331;28;20124;-74
2021/12/29 08:49:58;;;;;;;7.82;3.00;;;;;;;;;;5032527;28;20049;-76
2021/12/29 08:52:23;;;;;;;6.63;2.65;;;;;;;;;;5039054;28;20048;-76
2021/12/29 08:54:49;;;;;;;7.65;3.25;;;;;;;;;;5035640;28;20045;-77
2021/12/29 08:57:14;;;;;;;9.65;2.70;;;;;;;;;;5030567;28;20802;-74
2021/12/29 08:59:40;;;;;;;6.82;2.60;;;;;;;;;;5027963;28;20051;-77
2021/12/29 09:02:05;;;;;;;5.53;2.42;;;;;;;;;;5030356;28;20045;-79
2021/12/29 09:04:31;;;;;;;8.65;2.78;;;;;;;;;;5037165;28;20028;-77
2021/12/29 09:06:56;;;;;;;9.98;3.00;;;;;;;;;;5038334;28;20116;-74
2021/12/29 09:09:21;;;;;;;11.52;3.30;;;;;;;;;;5033848;28;20410;-73
2021/12/29 09:11:47;;;;;;;6.63;2.90;;;;;;;;;;5033705;28;20102;-75
2021/12/29 09:14:12;;;;;;;9.05;3.45;;;;;;;;;;5032328;28;20518;-76
2021/12/29 09:16:38;;;;;;;9.65;3.33;;;;;;;;;;5031234;28;20083;-76
2021/12/29 09:19:05;;;;;;;11.07;3.53;;;;;;;;;;5033118;28;20033;-79
2021/12/29 09:21:32;;;;;;;11.02;3.50;;;;;;;;;;5031779;28;20040;-73
2021/12/29 09:23:57;;;;;;;13.52;3.88;;;;;;;;;;5017916;28;20040;-74
2021/12/29 09:26:23;;;;;;;10.98;3.70;;;;;;;;;;5036058;28;20029;-75
2021/12/29 09:28:49;;;;;;;18.23;4.88;;;;;;;;;;5033655;28;20033;-76
2021/12/29 09:31:16;;;;;;;14.35;5.80;;;;;;;;;;5021254;28;20059;-79
2021/12/29 09:33:43;;;;;;;16.88;6.13;;;;;;;;;;5030276;28;20498;-76
2021/12/29 09:36:08;;;;;;;27.08;7.88;;;;;;;;;;5017668;28;20082;-75
2021/12/29 09:38:35;;;;;;;30.27;8.15;;;;;;;;;;5039452;28;20997;-76
2021/12/29 09:41:06;;;;;;;26.33;6.85;;;;;;;;;;5034055;28;20044;-76
2021/12/29 09:43:32;;;;;;;38.65;9.63;;;;;;;;;;5027367;28;20056;-75
2021/12/29 09:45:57;;;;;;;36.30;8.98;;;;;;;;;;5034318;28;20041;-75
2021/12/29 09:48:23;;;;;;;44.65;11.23;;;;;;;;;;5056537;28;20143;-75
2021/12/29 09:50:49;;;;;;;39.28;9.50;;;;;;;;;;5062695;28;20032;-75
2021/12/29 09:53:16;;;;;;;32.85;9.07;;;;;;;;;;5044938;28;20055;-76
2021/12/29 09:55:44;;;;;;;41.17;9.63;;;;;;;;;;5045261;28;20098;-75
2021/12/29 09:58:09;;;;;;;37.25;10.32;;;;;;;;;;5060675;28;20135;-74
2021/12/29 10:00:39;;;;;;;50.90;15.05;;;;;;;;;;5062033;28;20186;-74
2021/12/29 10:03:07;;;;;;;36.40;10.90;;;;;;;;;;5039521;28;20037;-74
2021/12/29 10:05:34;;;;;;;14.77;4.63;;;;;;;;;;5051952;28;20041;-75
2021/12/29 10:08:05;;;;;;;26.95;7.25;;;;;;;;;;5056007;28;20705;-77
2021/12/29 10:10:33;;;;;;;17.38;5.28;;;;;;;;;;5056093;28;20044;-79
2021/12/29 10:12:59;;;;;;;17.80;5.07;;;;;;;;;;5029494;28;20131;-75
2021/12/29 10:15:53;;;;;;;17.15;4.60;;;;;;;;;;5049788;28;20051;-79
2021/12/29 10:18:25;;;;;;;21.17;5.88;;;;;;;;;;5057862;28;20131;-76
2021/12/29 10:20:56;;;;;;;12.38;3.75;;;;;;;;;;5047559;28;20037;-76
2021/12/29 10:23:22;;;;;;;14.90;4.00;;;;;;;;;;5028626;28;20040;-76
2021/12/29 10:25:48;;;;;;;18.52;4.45;;;;;;;;;;5038480;28;20430;-80
2021/12/29 10:28:19;;;;;;;10.60;3.80;;;;;;;;;;5043087;28;20426;-79
2021/12/29 10:30:44;;;;;;;13.40;3.97;;;;;;;;;;5017612;28;20021;-80
2021/12/29 10:33:12;;;;;;;9.52;2.67;;;;;;;;;;5044650;28;20048;-79
2021/12/29 10:35:37;;;;;;;11.88;3.88;;;;;;;;;;5040751;28;20037;-77
2021/12/29 10:38:15;;;;;;;8.50;2.67;;;;;;;;;;5032920;28;20044;-79
2021/12/29 10:40:41;;;;;;;9.40;2.95;;;;;;;;;;5056398;28;20044;-78
2021/12/29 10:43:06;;;;;;;9.82;2.15;;;;;;;;;;5058942;28;20032;-78
2021/12/29 10:45:44;;;;;;;9.82;3.17;;;;;;;;;;5060680;28;20056;-74
2021/12/29 10:48:25;;;;;;;5.53;2.13;;;;;;;;;;5044434;28;20463;-74
2021/12/29 10:51:01;;;;;;;9.20;2.65;;;;;;;;;;5031874;28;20891;-77
2021/12/29 10:53:28;;;;;;;7.25;2.70;;;;;;;;;;5014976;28;20055;-75
2021/12/29 10:55:53;;;;;;;9.00;2.58;;;;;;;;;;5029645;28;20747;-76
2021/12/29 10:58:22;;;;;;;7.63;2.53;;;;;;;;;;5035498;28;20098;-78
2021/12/29 11:01:07;;;;;;;10.18;3.15;;;;;;;;;;5035656;28;20037;-75
2021/12/29 11:03:34;;;;;;;4.32;1.73;;;;;;;;;;5037046;28;20553;-77
2021/12/29 11:06:02;;;;;;;11.20;2.25;;;;;;;;;;5044084;28;20055;-77
2021/12/29 11:08:31;;;;;;;7.45;2.08;;;;;;;;;;5043256;28;20069;-76
2021/12/29 11:11:05;;;;;;;14.98;2.97;;;;;;;;;;5027127;28;20422;-74
2021/12/29 11:13:31;;;;;;;10.80;3.40;;;;;;;;;;5034338;28;20495;-80
2021/12/29 11:15:59;;;;;;;10.95;3.10;;;;;;;;;;5034572;28;20379;-74
2021/12/29 11:18:25;;;;;;;8.20;3.10;;;;;;;;;;5041504;28;20035;-72
2021/12/29 11:20:58;;;;;;;12.82;2.92;;;;;;;;;;5012910;28;20045;-73
2021/12/29 11:23:24;;;;;;;7.13;3.00;;;;;;;;;;5025602;28;20084;-73
2021/12/29 11:25:51;;;;;;;3.88;1.98;;;;;;;;;;5031246;28;20068;-73
2021/12/29 11:28:34;;;;;;;11.20;2.85;;;;;;;;;;5016260;28;20033;-73
2021/12/29 11:31:04;;;;;;;4.38;1.67;;;;;;;;;;5034045;28;20047;-74
2021/12/29 11:33:31;;;;;;;4.78;1.75;;;;;;;;;;4998186;28;20099;-74
2021/12/29 11:35:57;;;;;;;5.13;2.45;;;;;;;;;;5024784;28;20537;-74
2021/12/29 11:38:23;;;;;;;4.97;1.65;;;;;;;;;;5023753;28;20045;-74
2021/12/29 11:40:53;;;;;;;8.15;2.30;;;;;;;;;;5019169;28;20037;-74
2021/12/29 11:43:19;;;;;;;4.18;1.60;;;;;;;;;;5042864;28;20497;-73
2021/12/29 11:45:48;;;;;;;5.00;2.22;;;;;;;;;;5036109;28;20033;-73
2021/12/29 11:48:15;;;;;;;5.82;2.33;;;;;;;;;;5027959;28;20046;-74
2021/12/29 11:50:46;;;;;;;6.70;2.58;;;;;;;;;;5037901;28;20045;-76
2021/12/29 11:54:04;;;;;;;7.05;2.50;;;;;;;;;;5053779;28;20033;-75
2021/12/29 11:56:39;;;;;;;5.97;2.50;;;;;;;;;;4931732;29;20056;-74
2021/12/29 11:59:05;;;;;;;5.18;3.08;;;;;;;;;;4987438;28;20057;-75
2021/12/29 12:01:31;;;;;;;4.55;2.08;;;;;;;;;;5033734;28;20051;-77
2021/12/29 12:04:03;;;;;;;5.53;2.20;;;;;;;;;;5018202;28;20033;-75
2021/12/29 12:06:38;;;;;;;5.15;2.38;;;;;;;;;;5028536;28;20042;-76
2021/12/29 12:09:17;;;;;;;7.60;2.83;;;;;;;;;;5039963;28;20091;-76
2021/12/29 12:11:49;;;;;;;7.18;3.08;;;;;;;;;;5005322;28;20064;-76
2021/12/29 12:14:21;;;;;;;5.60;2.70;;;;;;;;;;4992822;28;20478;-74
2021/12/29 12:16:51;;;;;;;5.13;2.75;;;;;;;;;;5019395;28;20063;-77
2021/12/29 12:19:20;;;;;;;7.00;2.88;;;;;;;;;;5024587;28;20029;-75
2021/12/29 12:21:45;;;;;;;7.95;3.25;;;;;;;;;;5013035;28;20100;-76
2021/12/29 12:24:16;;;;;;;7.25;3.20;;;;;;;;;;5033950;28;20493;-73
2021/12/29 12:26:57;;;;;;;5.10;2.45;;;;;;;;;;5025364;28;20044;-74
2021/12/29 12:29:29;;;;;;;4.68;2.58;;;;;;;;;;5004029;28;20048;-74
2021/12/29 12:32:04;;;;;;;5.05;2.95;;;;;;;;;;5003707;28;20053;-74
2021/12/29 12:34:30;;;;;;;4.85;2.50;;;;;;;;;;5008067;28;20053;-74
2021/12/29 12:36:55;;;;;;;5.70;2.30;;;;;;;;;;5021653;28;20136;-75
2021/12/29 12:39:21;;;;;;;4.30;2.67;;;;;;;;;;5017074;28;20037;-74
2021/12/29 12:41:49;;;;;;;6.80;3.08;;;;;;;;;;5015217;28;20046;-73
2021/12/29 12:44:19;;;;;;;4.05;2.67;;;;;;;;;;5015745;28;20033;-74
2021/12/29 12:46:47;;;;;;;3.08;2.13;;;;;;;;;;5018825;28;20080;-74
2021/12/29 12:49:26;;;;;;;4.55;2.08;;;;;;;;;;5042191;28;20037;-74
2021/12/29 12:51:57;;;;;;;2.90;1.75;;;;;;;;;;5060306;28;20616;-73
2021/12/29 12:54:27;;;;;;;2.55;1.65;;;;;;;;;;5064125;28;20036;-74
2021/12/29 12:56:53;;;;;;;2.22;1.55;;;;;;;;;;5054089;28;20049;-74
2021/12/29 12:59:18;;;;;;;2.25;1.60;;;;;;;;;;5040964;28;20418;-74
2021/12/29 13:01:50;;;;;;;2.17;1.65;;;;;;;;;;5041318;28;20106;-74
2021/12/29 13:04:16;;;;;;;5.22;1.77;;;;;;;;;;5043101;28;20488;-74
2021/12/29 13:06:44;;;;;;;3.75;1.83;;;;;;;;;;5043715;28;20029;-74
2021/12/29 13:09:11;;;;;;;2.60;1.60;;;;;;;;;;5045693;28;20124;-74
2021/12/29 13:11:40;;;;;;;4.90;1.60;;;;;;;;;;5048576;28;20123;-74
2021/12/29 13:14:11;;;;;;;3.50;1.38;;;;;;;;;;5047228;28;20509;-74
2021/12/29 13:16:37;;;;;;;3.90;1.80;;;;;;;;;;5042925;28;20117;-74
2021/12/29 13:19:03;;;;;;;3.72;1.95;;;;;;;;;;5063711;28;20481;-74
2021/12/29 13:21:41;;;;;;;3.70;2.00;;;;;;;;;;5053714;28;20701;-74
2021/12/29 13:24:10;;;;;;;5.20;2.85;;;;;;;;;;5057008;28;20037;-74
2021/12/29 13:26:42;;;;;;;3.83;2.10;;;;;;;;;;5058702;28;20056;-74
2021/12/29 13:29:10;;;;;;;6.28;3.67;;;;;;;;;;5054642;28;20668;-74
2021/12/29 13:31:36;;;;;;;4.03;2.35;;;;;;;;;;5048509;28;20573;-74
2021/12/29 13:34:02;;;;;;;3.08;2.17;;;;;;;;;;5047773;28;20139;-74
2021/12/29 13:36:27;;;;;;;3.00;1.90;;;;;;;;;;5053307;28;20044;-74
2021/12/29 13:38:57;;;;;;;5.60;2.03;;;;;;;;;;5050218;28;20041;-74
2021/12/29 13:41:28;;;;;;;3.60;2.25;;;;;;;;;;5033913;28;21134;-74
2021/12/29 13:43:56;;;;;;;3.30;2.47;;;;;;;;;;5036287;28;20037;-74
2021/12/29 13:46:32;;;;;;;3.55;2.00;;;;;;;;;;5035612;28;20034;-74
2021/12/29 13:49:00;;;;;;;2.75;1.90;;;;;;;;;;5042541;28;20057;-74
2021/12/29 13:51:35;;;;;;;3.05;2.08;;;;;;;;;;5033204;28;20075;-74
2021/12/29 13:54:08;;;;;;;5.07;2.60;;;;;;;;;;5032226;28;20076;-74
2021/12/29 13:56:40;;;;;;;6.85;2.40;;;;;;;;;;5030920;28;20610;-74
2021/12/29 13:59:09;;;;;;;5.38;2.78;;;;;;;;;;5035555;28;20041;-74
2021/12/29 14:01:37;;;;;;;8.45;3.13;;;;;;;;;;5035143;28;20057;-74
2021/12/29 14:04:03;;;;;;;6.47;3.60;;;;;;;;;;5041073;28;20033;-74
2021/12/29 14:06:29;;;;;;;5.85;3.50;;;;;;;;;;5029331;28;20403;-74
2021/12/29 14:08:55;;;;;;;6.75;3.72;;;;;;;;;;5029370;28;20675;-74
2021/12/29 14:11:22;;;;;;;6.93;3.72;;;;;;;;;;5032993;28;20510;-74
2021/12/29 14:14:00;;;;;;;6.82;3.83;;;;;;;;;;5036460;28;20541;-74
2021/12/29 14:16:27;;;;;;;6.45;3.80;;;;;;;;;;5022180;28;20029;-74
2021/12/29 14:18:56;;;;;;;8.63;4.55;;;;;;;;;;5036507;28;20091;-74
2021/12/29 14:21:30;;;;;;;7.35;3.80;;;;;;;;;;5037346;28;20044;-74
2021/12/29 14:23:58;;;;;;;7.57;3.58;;;;;;;;;;5035396;28;20045;-74
2021/12/29 14:26:27;;;;;;;3.90;2.63;;;;;;;;;;5032342;28;20033;-74
2021/12/29 14:28:58;;;;;;;6.80;3.60;;;;;;;;;;5034115;28;20151;-74
2021/12/29 14:31:33;;;;;;;6.40;3.97;;;;;;;;;;5028180;28;20121;-74
2021/12/29 14:34:01;;;;;;;8.95;4.97;;;;;;;;;;5041392;28;20113;-74
2021/12/29 14:36:44;;;;;;;6.85;4.03;;;;;;;;;;5011852;28;20046;-74
2021/12/29 14:39:22;;;;;;;5.60;3.22;;;;;;;;;;5023160;28;20128;-74
2021/12/29 14:42:23;;;;;;;7.03;4.03;;;;;;;;;;5003696;28;20451;-74
2021/12/29 14:44:56;;;;;;;6.53;3.85;;;;;;;;;;5015485;28;20056;-74